sensor_id;sensor_type;location;lat;lon;timestamp;temperature;humidity
3842;DHT22;1936;47.074;15.336;2023-04-24T00:00:32;9.30;90.80
3842;DHT22;1936;47.074;15.336;2023-04-24T00:02:37;9.40;91.10
3842;DHT22;1936;47.074;15.336;2023-04-24T00:04:42;9.50;90.60
3842;DHT22;1936;47.074;15.336;2023-04-24T00:06:46;9.50;91.10
3842;DHT22;1936;47.074;15.336;2023-04-24T00:08:55;9.50;92.00
3842;DHT22;1936;47.074;15.336;2023-04-24T00:10:58;9.50;91.40
3842;DHT22;1936;47.074;15.336;2023-04-24T00:13:01;9.60;92.00
3842;DHT22;1936;47.074;15.336;2023-04-24T00:15:06;9.70;91.70
3842;DHT22;1936;47.074;15.336;2023-04-24T00:17:10;9.70;91.10
3842;DHT22;1936;47.074;15.336;2023-04-24T00:19:14;9.80;91.10
3842;DHT22;1936;47.074;15.336;2023-04-24T00:21:18;9.80;91.40
3842;DHT22;1936;47.074;15.336;2023-04-24T00:23:22;9.70;91.30
3842;DHT22;1936;47.074;15.336;2023-04-24T00:25:25;9.90;91.10
3842;DHT22;1936;47.074;15.336;2023-04-24T00:27:28;10.00;92.10
3842;DHT22;1936;47.074;15.336;2023-04-24T00:29:32;10.10;92.00
3842;DHT22;1936;47.074;15.336;2023-04-24T00:31:35;10.30;91.70
3842;DHT22;1936;47.074;15.336;2023-04-24T00:33:40;10.30;92.10
3842;DHT22;1936;47.074;15.336;2023-04-24T00:35:43;10.40;92.00
3842;DHT22;1936;47.074;15.336;2023-04-24T00:37:47;10.50;91.70
3842;DHT22;1936;47.074;15.336;2023-04-24T00:39:50;10.60;91.80
3842;DHT22;1936;47.074;15.336;2023-04-24T00:41:53;10.60;91.60
3842;DHT22;1936;47.074;15.336;2023-04-24T00:43:57;10.50;91.70
3842;DHT22;1936;47.074;15.336;2023-04-24T00:46:00;10.50;91.90
3842;DHT22;1936;47.074;15.336;2023-04-24T00:48:04;10.50;92.10
3842;DHT22;1936;47.074;15.336;2023-04-24T00:50:10;10.50;91.70
3842;DHT22;1936;47.074;15.336;2023-04-24T00:52:15;10.60;91.30
3842;DHT22;1936;47.074;15.336;2023-04-24T00:54:19;10.60;91.60
3842;DHT22;1936;47.074;15.336;2023-04-24T00:56:23;10.70;91.40
3842;DHT22;1936;47.074;15.336;2023-04-24T00:58:26;10.70;91.40
3842;DHT22;1936;47.074;15.336;2023-04-24T01:00:30;10.50;91.20
3842;DHT22;1936;47.074;15.336;2023-04-24T01:02:34;10.60;91.20
3842;DHT22;1936;47.074;15.336;2023-04-24T01:04:37;10.60;91.00
3842;DHT22;1936;47.074;15.336;2023-04-24T01:06:43;10.50;91.00
3842;DHT22;1936;47.074;15.336;2023-04-24T01:08:47;10.30;91.40
3842;DHT22;1936;47.074;15.336;2023-04-24T01:10:52;10.40;91.00
3842;DHT22;1936;47.074;15.336;2023-04-24T01:12:55;10.30;90.40
3842;DHT22;1936;47.074;15.336;2023-04-24T01:14:59;10.30;90.00
3842;DHT22;1936;47.074;15.336;2023-04-24T01:17:03;10.10;89.70
3842;DHT22;1936;47.074;15.336;2023-04-24T01:19:11;10.30;90.10
3842;DHT22;1936;47.074;15.336;2023-04-24T01:21:15;10.20;90.50
3842;DHT22;1936;47.074;15.336;2023-04-24T01:23:24;9.90;90.60
3842;DHT22;1936;47.074;15.336;2023-04-24T01:25:28;9.80;90.40
3842;DHT22;1936;47.074;15.336;2023-04-24T01:27:32;9.70;90.50
3842;DHT22;1936;47.074;15.336;2023-04-24T01:29:36;9.70;90.30
3842;DHT22;1936;47.074;15.336;2023-04-24T01:31:40;9.70;90.10
3842;DHT22;1936;47.074;15.336;2023-04-24T01:33:44;9.80;90.10
3842;DHT22;1936;47.074;15.336;2023-04-24T01:35:47;9.50;90.40
3842;DHT22;1936;47.074;15.336;2023-04-24T01:37:51;9.70;90.50
3842;DHT22;1936;47.074;15.336;2023-04-24T01:39:56;9.60;90.50
3842;DHT22;1936;47.074;15.336;2023-04-24T01:41:59;9.30;91.00
3842;DHT22;1936;47.074;15.336;2023-04-24T01:44:04;9.40;90.40
3842;DHT22;1936;47.074;15.336;2023-04-24T01:46:07;9.50;90.70
3842;DHT22;1936;47.074;15.336;2023-04-24T01:48:12;9.50;90.90
3842;DHT22;1936;47.074;15.336;2023-04-24T01:50:15;9.40;91.10
3842;DHT22;1936;47.074;15.336;2023-04-24T01:52:20;9.50;91.00
3842;DHT22;1936;47.074;15.336;2023-04-24T01:54:26;9.60;90.70
3842;DHT22;1936;47.074;15.336;2023-04-24T01:56:33;9.60;90.20
3842;DHT22;1936;47.074;15.336;2023-04-24T01:58:37;9.70;91.00
3842;DHT22;1936;47.074;15.336;2023-04-24T02:00:41;9.80;91.70
3842;DHT22;1936;47.074;15.336;2023-04-24T02:02:45;9.90;92.20
3842;DHT22;1936;47.074;15.336;2023-04-24T02:04:49;9.90;92.70
3842;DHT22;1936;47.074;15.336;2023-04-24T02:06:52;10.20;92.90
3842;DHT22;1936;47.074;15.336;2023-04-24T02:08:56;10.20;93.20
3842;DHT22;1936;47.074;15.336;2023-04-24T02:10:59;10.10;92.20
3842;DHT22;1936;47.074;15.336;2023-04-24T02:13:05;10.20;92.30
3842;DHT22;1936;47.074;15.336;2023-04-24T02:15:08;10.20;91.90
3842;DHT22;1936;47.074;15.336;2023-04-24T02:17:12;10.20;92.40
3842;DHT22;1936;47.074;15.336;2023-04-24T02:19:17;10.30;92.50
3842;DHT22;1936;47.074;15.336;2023-04-24T02:21:20;10.30;92.00
3842;DHT22;1936;47.074;15.336;2023-04-24T02:23:23;10.40;92.40
3842;DHT22;1936;47.074;15.336;2023-04-24T02:25:27;10.30;92.30
3842;DHT22;1936;47.074;15.336;2023-04-24T02:27:30;10.40;92.10
3842;DHT22;1936;47.074;15.336;2023-04-24T02:29:35;10.40;92.10
3842;DHT22;1936;47.074;15.336;2023-04-24T02:31:38;10.40;91.80
3842;DHT22;1936;47.074;15.336;2023-04-24T02:33:41;10.30;92.10
3842;DHT22;1936;47.074;15.336;2023-04-24T02:35:44;10.50;92.00
3842;DHT22;1936;47.074;15.336;2023-04-24T02:37:48;10.50;91.50
3842;DHT22;1936;47.074;15.336;2023-04-24T02:39:51;10.50;91.60
3842;DHT22;1936;47.074;15.336;2023-04-24T02:41:54;10.40;91.30
3842;DHT22;1936;47.074;15.336;2023-04-24T02:43:58;10.30;91.60
3842;DHT22;1936;47.074;15.336;2023-04-24T02:46:03;10.40;91.20
3842;DHT22;1936;47.074;15.336;2023-04-24T02:48:06;10.30;91.00
3842;DHT22;1936;47.074;15.336;2023-04-24T02:50:10;10.40;91.00
3842;DHT22;1936;47.074;15.336;2023-04-24T02:52:13;10.30;91.10
3842;DHT22;1936;47.074;15.336;2023-04-24T02:54:17;10.30;91.40
3842;DHT22;1936;47.074;15.336;2023-04-24T02:56:20;10.30;91.40
3842;DHT22;1936;47.074;15.336;2023-04-24T02:58:26;10.30;91.00
3842;DHT22;1936;47.074;15.336;2023-04-24T03:00:29;10.20;91.30
3842;DHT22;1936;47.074;15.336;2023-04-24T03:02:34;10.20;91.50
3842;DHT22;1936;47.074;15.336;2023-04-24T03:04:38;10.10;91.20
3842;DHT22;1936;47.074;15.336;2023-04-24T03:06:42;10.10;91.50
3842;DHT22;1936;47.074;15.336;2023-04-24T03:08:45;10.00;92.90
3842;DHT22;1936;47.074;15.336;2023-04-24T03:10:48;9.90;93.80
3842;DHT22;1936;47.074;15.336;2023-04-24T03:12:52;10.10;93.40
3842;DHT22;1936;47.074;15.336;2023-04-24T03:14:56;10.30;92.70
3842;DHT22;1936;47.074;15.336;2023-04-24T03:16:59;10.30;92.10
3842;DHT22;1936;47.074;15.336;2023-04-24T03:19:04;10.20;92.10
3842;DHT22;1936;47.074;15.336;2023-04-24T03:21:08;10.30;91.90
3842;DHT22;1936;47.074;15.336;2023-04-24T03:23:11;10.30;91.80
3842;DHT22;1936;47.074;15.336;2023-04-24T03:25:14;10.30;91.30
3842;DHT22;1936;47.074;15.336;2023-04-24T03:27:17;10.30;91.30
3842;DHT22;1936;47.074;15.336;2023-04-24T03:29:20;10.50;91.40
3842;DHT22;1936;47.074;15.336;2023-04-24T03:31:24;10.50;91.30
3842;DHT22;1936;47.074;15.336;2023-04-24T03:33:27;10.40;91.30
3842;DHT22;1936;47.074;15.336;2023-04-24T03:35:32;10.30;91.60
3842;DHT22;1936;47.074;15.336;2023-04-24T03:37:35;10.40;91.70
3842;DHT22;1936;47.074;15.336;2023-04-24T03:39:38;10.40;91.80
3842;DHT22;1936;47.074;15.336;2023-04-24T03:41:42;10.40;91.80
3842;DHT22;1936;47.074;15.336;2023-04-24T03:43:45;10.50;91.70
3842;DHT22;1936;47.074;15.336;2023-04-24T03:45:48;10.50;91.60
3842;DHT22;1936;47.074;15.336;2023-04-24T03:47:52;10.60;91.20
3842;DHT22;1936;47.074;15.336;2023-04-24T03:49:56;10.60;91.30
3842;DHT22;1936;47.074;15.336;2023-04-24T03:52:00;10.40;91.40
3842;DHT22;1936;47.074;15.336;2023-04-24T03:54:04;10.60;91.20
3842;DHT22;1936;47.074;15.336;2023-04-24T03:56:07;10.60;91.00
3842;DHT22;1936;47.074;15.336;2023-04-24T03:58:10;10.80;90.80
3842;DHT22;1936;47.074;15.336;2023-04-24T04:00:15;10.70;91.10
3842;DHT22;1936;47.074;15.336;2023-04-24T04:02:20;10.80;91.20
3842;DHT22;1936;47.074;15.336;2023-04-24T04:04:24;10.70;91.60
3842;DHT22;1936;47.074;15.336;2023-04-24T04:06:27;10.70;91.40
3842;DHT22;1936;47.074;15.336;2023-04-24T04:08:34;10.80;91.30
3842;DHT22;1936;47.074;15.336;2023-04-24T04:10:37;10.80;91.40
3842;DHT22;1936;47.074;15.336;2023-04-24T04:12:40;10.90;91.40
3842;DHT22;1936;47.074;15.336;2023-04-24T04:14:43;10.90;91.50
3842;DHT22;1936;47.074;15.336;2023-04-24T04:16:47;11.10;91.20
3842;DHT22;1936;47.074;15.336;2023-04-24T04:18:51;10.80;91.20
3842;DHT22;1936;47.074;15.336;2023-04-24T04:20:55;11.00;91.20
3842;DHT22;1936;47.074;15.336;2023-04-24T04:22:58;10.80;91.60
3842;DHT22;1936;47.074;15.336;2023-04-24T04:25:03;10.60;92.10
3842;DHT22;1936;47.074;15.336;2023-04-24T04:27:07;10.70;92.40
3842;DHT22;1936;47.074;15.336;2023-04-24T04:29:10;10.90;92.20
3842;DHT22;1936;47.074;15.336;2023-04-24T04:31:14;11.00;91.80
3842;DHT22;1936;47.074;15.336;2023-04-24T04:33:17;11.10;91.80
3842;DHT22;1936;47.074;15.336;2023-04-24T04:35:20;11.10;91.60
3842;DHT22;1936;47.074;15.336;2023-04-24T04:37:24;11.00;91.70
3842;DHT22;1936;47.074;15.336;2023-04-24T04:39:27;11.20;91.60
3842;DHT22;1936;47.074;15.336;2023-04-24T04:41:33;11.30;91.20
3842;DHT22;1936;47.074;15.336;2023-04-24T04:43:37;11.10;91.50
3842;DHT22;1936;47.074;15.336;2023-04-24T04:45:41;11.30;91.60
3842;DHT22;1936;47.074;15.336;2023-04-24T04:47:45;11.40;91.30
3842;DHT22;1936;47.074;15.336;2023-04-24T04:49:49;11.40;91.00
3842;DHT22;1936;47.074;15.336;2023-04-24T04:51:52;11.40;91.10
3842;DHT22;1936;47.074;15.336;2023-04-24T04:53:56;11.50;91.00
3842;DHT22;1936;47.074;15.336;2023-04-24T04:55:59;11.50;90.90
3842;DHT22;1936;47.074;15.336;2023-04-24T04:58:04;11.60;91.20
3842;DHT22;1936;47.074;15.336;2023-04-24T05:00:08;11.70;91.10
3842;DHT22;1936;47.074;15.336;2023-04-24T05:02:16;11.70;91.20
3842;DHT22;1936;47.074;15.336;2023-04-24T05:04:20;11.70;91.20
3842;DHT22;1936;47.074;15.336;2023-04-24T05:06:23;11.80;91.00
3842;DHT22;1936;47.074;15.336;2023-04-24T05:08:27;11.80;90.90
3842;DHT22;1936;47.074;15.336;2023-04-24T05:10:32;11.80;90.80
3842;DHT22;1936;47.074;15.336;2023-04-24T05:12:36;11.80;90.80
3842;DHT22;1936;47.074;15.336;2023-04-24T05:14:40;11.90;91.00
3842;DHT22;1936;47.074;15.336;2023-04-24T05:16:44;11.90;90.90
3842;DHT22;1936;47.074;15.336;2023-04-24T05:18:47;12.00;90.90
3842;DHT22;1936;47.074;15.336;2023-04-24T05:20:51;12.20;90.60
3842;DHT22;1936;47.074;15.336;2023-04-24T05:22:54;12.10;90.60
3842;DHT22;1936;47.074;15.336;2023-04-24T05:24:57;12.20;90.60
3842;DHT22;1936;47.074;15.336;2023-04-24T05:27:01;12.40;90.10
3842;DHT22;1936;47.074;15.336;2023-04-24T05:29:06;12.00;89.80
3842;DHT22;1936;47.074;15.336;2023-04-24T05:31:11;11.90;90.30
3842;DHT22;1936;47.074;15.336;2023-04-24T05:33:15;12.00;90.00
3842;DHT22;1936;47.074;15.336;2023-04-24T05:35:20;12.00;90.20
3842;DHT22;1936;47.074;15.336;2023-04-24T05:37:23;12.00;90.20
3842;DHT22;1936;47.074;15.336;2023-04-24T05:39:27;12.10;90.40
3842;DHT22;1936;47.074;15.336;2023-04-24T05:41:30;12.40;90.30
3842;DHT22;1936;47.074;15.336;2023-04-24T05:43:34;12.50;90.00
3842;DHT22;1936;47.074;15.336;2023-04-24T05:45:37;12.70;89.80
3842;DHT22;1936;47.074;15.336;2023-04-24T05:47:42;12.70;88.80
3842;DHT22;1936;47.074;15.336;2023-04-24T05:49:46;12.30;89.70
3842;DHT22;1936;47.074;15.336;2023-04-24T05:51:49;12.50;90.40
3842;DHT22;1936;47.074;15.336;2023-04-24T05:53:52;12.50;90.20
3842;DHT22;1936;47.074;15.336;2023-04-24T05:55:56;12.60;90.40
3842;DHT22;1936;47.074;15.336;2023-04-24T05:57:59;12.70;89.00
3842;DHT22;1936;47.074;15.336;2023-04-24T06:00:03;12.80;87.70
3842;DHT22;1936;47.074;15.336;2023-04-24T06:02:06;12.90;86.50
3842;DHT22;1936;47.074;15.336;2023-04-24T06:04:12;13.00;86.60
3842;DHT22;1936;47.074;15.336;2023-04-24T06:06:16;13.00;85.30
3842;DHT22;1936;47.074;15.336;2023-04-24T06:08:21;13.10;85.40
3842;DHT22;1936;47.074;15.336;2023-04-24T06:10:24;13.40;85.10
3842;DHT22;1936;47.074;15.336;2023-04-24T06:12:27;13.50;83.70
3842;DHT22;1936;47.074;15.336;2023-04-24T06:14:30;13.60;82.60
3842;DHT22;1936;47.074;15.336;2023-04-24T06:16:34;13.90;83.40
3842;DHT22;1936;47.074;15.336;2023-04-24T06:18:37;14.20;82.70
3842;DHT22;1936;47.074;15.336;2023-04-24T06:20:42;14.50;82.00
3842;DHT22;1936;47.074;15.336;2023-04-24T06:22:45;14.80;80.40
3842;DHT22;1936;47.074;15.336;2023-04-24T06:24:49;14.90;79.50
3842;DHT22;1936;47.074;15.336;2023-04-24T06:26:52;15.00;76.50
3842;DHT22;1936;47.074;15.336;2023-04-24T06:28:56;15.00;78.50
3842;DHT22;1936;47.074;15.336;2023-04-24T06:31:01;15.20;77.30
3842;DHT22;1936;47.074;15.336;2023-04-24T06:33:04;15.50;78.00
3842;DHT22;1936;47.074;15.336;2023-04-24T06:35:21;15.60;78.40
3842;DHT22;1936;47.074;15.336;2023-04-24T06:37:27;15.70;74.10
3842;DHT22;1936;47.074;15.336;2023-04-24T06:39:30;15.40;75.70
3842;DHT22;1936;47.074;15.336;2023-04-24T06:41:33;15.20;77.00
3842;DHT22;1936;47.074;15.336;2023-04-24T06:43:37;14.90;75.90
3842;DHT22;1936;47.074;15.336;2023-04-24T06:45:40;14.60;77.30
3842;DHT22;1936;47.074;15.336;2023-04-24T06:47:45;14.40;77.10
3842;DHT22;1936;47.074;15.336;2023-04-24T06:49:49;14.10;78.00
3842;DHT22;1936;47.074;15.336;2023-04-24T06:51:54;13.80;79.30
3842;DHT22;1936;47.074;15.336;2023-04-24T06:53:59;13.80;80.20
3842;DHT22;1936;47.074;15.336;2023-04-24T06:56:02;13.80;79.30
3842;DHT22;1936;47.074;15.336;2023-04-24T06:58:06;13.80;80.00
3842;DHT22;1936;47.074;15.336;2023-04-24T07:00:11;14.00;78.90
3842;DHT22;1936;47.074;15.336;2023-04-24T07:02:14;14.20;78.00
3842;DHT22;1936;47.074;15.336;2023-04-24T07:04:18;14.30;77.80
3842;DHT22;1936;47.074;15.336;2023-04-24T07:06:21;14.20;77.40
3842;DHT22;1936;47.074;15.336;2023-04-24T07:08:26;14.30;78.80
3842;DHT22;1936;47.074;15.336;2023-04-24T07:10:31;14.10;80.50
3842;DHT22;1936;47.074;15.336;2023-04-24T07:12:37;14.20;80.60
3842;DHT22;1936;47.074;15.336;2023-04-24T07:14:40;14.20;79.60
3842;DHT22;1936;47.074;15.336;2023-04-24T07:16:44;14.20;80.10
3842;DHT22;1936;47.074;15.336;2023-04-24T07:18:48;14.20;79.60
3842;DHT22;1936;47.074;15.336;2023-04-24T07:20:51;14.20;79.60
3842;DHT22;1936;47.074;15.336;2023-04-24T07:22:54;14.30;80.70
3842;DHT22;1936;47.074;15.336;2023-04-24T07:24:58;14.30;81.00
3842;DHT22;1936;47.074;15.336;2023-04-24T07:27:04;14.10;82.10
3842;DHT22;1936;47.074;15.336;2023-04-24T07:29:08;13.90;83.90
3842;DHT22;1936;47.074;15.336;2023-04-24T07:31:11;13.70;85.30
3842;DHT22;1936;47.074;15.336;2023-04-24T07:33:15;13.50;86.30
3842;DHT22;1936;47.074;15.336;2023-04-24T07:35:18;13.50;87.00
3842;DHT22;1936;47.074;15.336;2023-04-24T07:37:22;13.50;87.10
3842;DHT22;1936;47.074;15.336;2023-04-24T07:39:26;13.80;86.40
3842;DHT22;1936;47.074;15.336;2023-04-24T07:41:31;13.80;85.60
3842;DHT22;1936;47.074;15.336;2023-04-24T07:43:36;13.90;84.80
3842;DHT22;1936;47.074;15.336;2023-04-24T07:45:39;14.00;84.50
3842;DHT22;1936;47.074;15.336;2023-04-24T07:47:43;14.10;84.40
3842;DHT22;1936;47.074;15.336;2023-04-24T07:49:47;14.10;84.20
3842;DHT22;1936;47.074;15.336;2023-04-24T07:51:50;14.10;84.60
3842;DHT22;1936;47.074;15.336;2023-04-24T07:53:54;14.10;84.60
3842;DHT22;1936;47.074;15.336;2023-04-24T07:55:58;14.10;84.60
3842;DHT22;1936;47.074;15.336;2023-04-24T07:58:01;14.20;84.50
3842;DHT22;1936;47.074;15.336;2023-04-24T08:00:09;14.10;84.60
3842;DHT22;1936;47.074;15.336;2023-04-24T08:02:12;14.10;84.60
3842;DHT22;1936;47.074;15.336;2023-04-24T08:04:16;14.00;85.10
3842;DHT22;1936;47.074;15.336;2023-04-24T08:06:21;14.10;85.10
3842;DHT22;1936;47.074;15.336;2023-04-24T08:08:25;14.00;85.30
3842;DHT22;1936;47.074;15.336;2023-04-24T08:10:28;14.10;85.70
3842;DHT22;1936;47.074;15.336;2023-04-24T08:12:31;14.10;85.60
3842;DHT22;1936;47.074;15.336;2023-04-24T08:14:35;14.20;85.30
3842;DHT22;1936;47.074;15.336;2023-04-24T08:16:40;14.00;85.30
3842;DHT22;1936;47.074;15.336;2023-04-24T08:18:44;14.10;85.40
3842;DHT22;1936;47.074;15.336;2023-04-24T08:20:47;14.20;84.20
3842;DHT22;1936;47.074;15.336;2023-04-24T08:22:51;14.20;83.90
3842;DHT22;1936;47.074;15.336;2023-04-24T08:24:54;14.20;83.50
3842;DHT22;1936;47.074;15.336;2023-04-24T08:26:58;14.20;83.70
3842;DHT22;1936;47.074;15.336;2023-04-24T08:29:03;14.20;84.00
3842;DHT22;1936;47.074;15.336;2023-04-24T08:31:06;14.10;84.10
3842;DHT22;1936;47.074;15.336;2023-04-24T08:33:11;14.20;84.20
3842;DHT22;1936;47.074;15.336;2023-04-24T08:35:15;14.00;85.00
3842;DHT22;1936;47.074;15.336;2023-04-24T08:37:18;14.00;84.80
3842;DHT22;1936;47.074;15.336;2023-04-24T08:39:21;14.10;84.60
3842;DHT22;1936;47.074;15.336;2023-04-24T08:41:27;14.00;84.40
3842;DHT22;1936;47.074;15.336;2023-04-24T08:43:32;14.10;84.90
3842;DHT22;1936;47.074;15.336;2023-04-24T08:45:36;14.00;85.00
3842;DHT22;1936;47.074;15.336;2023-04-24T08:47:40;13.80;85.50
3842;DHT22;1936;47.074;15.336;2023-04-24T08:49:48;13.90;86.90
3842;DHT22;1936;47.074;15.336;2023-04-24T08:51:53;13.80;86.80
3842;DHT22;1936;47.074;15.336;2023-04-24T08:53:57;14.20;86.60
3842;DHT22;1936;47.074;15.336;2023-04-24T08:56:01;14.30;86.10
3842;DHT22;1936;47.074;15.336;2023-04-24T08:58:04;14.30;85.90
3842;DHT22;1936;47.074;15.336;2023-04-24T09:00:09;14.50;85.50
3842;DHT22;1936;47.074;15.336;2023-04-24T09:02:13;14.50;84.40
3842;DHT22;1936;47.074;15.336;2023-04-24T09:04:19;14.40;84.30
3842;DHT22;1936;47.074;15.336;2023-04-24T09:06:25;14.30;84.80
3842;DHT22;1936;47.074;15.336;2023-04-24T09:08:30;14.00;84.80
3842;DHT22;1936;47.074;15.336;2023-04-24T09:10:35;13.80;86.10
3842;DHT22;1936;47.074;15.336;2023-04-24T09:12:38;13.70;86.90
3842;DHT22;1936;47.074;15.336;2023-04-24T09:14:42;13.90;86.30
3842;DHT22;1936;47.074;15.336;2023-04-24T09:16:47;13.90;85.90
3842;DHT22;1936;47.074;15.336;2023-04-24T09:18:51;13.70;86.10
3842;DHT22;1936;47.074;15.336;2023-04-24T09:20:59;13.40;87.20
3842;DHT22;1936;47.074;15.336;2023-04-24T09:23:04;13.40;88.50
3842;DHT22;1936;47.074;15.336;2023-04-24T09:25:09;13.40;86.70
3842;DHT22;1936;47.074;15.336;2023-04-24T09:27:14;13.20;86.70
3842;DHT22;1936;47.074;15.336;2023-04-24T09:29:20;12.90;87.10
3842;DHT22;1936;47.074;15.336;2023-04-24T09:31:24;12.90;87.90
3842;DHT22;1936;47.074;15.336;2023-04-24T09:33:29;12.90;88.60
3842;DHT22;1936;47.074;15.336;2023-04-24T09:35:33;13.20;88.30
3842;DHT22;1936;47.074;15.336;2023-04-24T09:37:37;13.40;87.20
3842;DHT22;1936;47.074;15.336;2023-04-24T09:39:42;13.60;86.50
3842;DHT22;1936;47.074;15.336;2023-04-24T09:41:47;13.70;85.90
3842;DHT22;1936;47.074;15.336;2023-04-24T09:43:50;14.00;87.20
3842;DHT22;1936;47.074;15.336;2023-04-24T09:45:56;14.50;84.80
3842;DHT22;1936;47.074;15.336;2023-04-24T09:48:00;15.30;83.90
3842;DHT22;1936;47.074;15.336;2023-04-24T09:50:12;15.90;80.70
3842;DHT22;1936;47.074;15.336;2023-04-24T09:52:16;16.00;79.30
3842;DHT22;1936;47.074;15.336;2023-04-24T09:54:20;15.90;75.60
3842;DHT22;1936;47.074;15.336;2023-04-24T09:56:26;15.90;75.30
3842;DHT22;1936;47.074;15.336;2023-04-24T09:58:30;16.00;72.80
3842;DHT22;1936;47.074;15.336;2023-04-24T10:00:35;16.30;74.10
3842;DHT22;1936;47.074;15.336;2023-04-24T10:02:38;16.30;73.20
3842;DHT22;1936;47.074;15.336;2023-04-24T10:04:54;16.40;74.80
3842;DHT22;1936;47.074;15.336;2023-04-24T10:06:58;16.40;70.70
3842;DHT22;1936;47.074;15.336;2023-04-24T10:09:03;15.90;74.40
3842;DHT22;1936;47.074;15.336;2023-04-24T10:11:07;16.20;75.50
3842;DHT22;1936;47.074;15.336;2023-04-24T10:23:18;15.60;76.00
3842;DHT22;1936;47.074;15.336;2023-04-24T10:25:36;15.30;75.90
3842;DHT22;1936;47.074;15.336;2023-04-24T10:27:54;15.30;76.60
3842;DHT22;1936;47.074;15.336;2023-04-24T10:30:16;15.20;77.60
3842;DHT22;1936;47.074;15.336;2023-04-24T10:32:19;15.20;76.70
3842;DHT22;1936;47.074;15.336;2023-04-24T10:34:23;15.10;77.00
3842;DHT22;1936;47.074;15.336;2023-04-24T10:36:28;15.30;77.80
3842;DHT22;1936;47.074;15.336;2023-04-24T10:38:41;15.50;75.40
3842;DHT22;1936;47.074;15.336;2023-04-24T10:40:44;15.60;76.20
3842;DHT22;1936;47.074;15.336;2023-04-24T10:42:48;15.60;74.60
3842;DHT22;1936;47.074;15.336;2023-04-24T10:44:56;15.40;76.00
3842;DHT22;1936;47.074;15.336;2023-04-24T10:47:00;15.70;76.70
3842;DHT22;1936;47.074;15.336;2023-04-24T10:49:05;15.60;74.00
3842;DHT22;1936;47.074;15.336;2023-04-24T10:51:13;15.40;74.60
3842;DHT22;1936;47.074;15.336;2023-04-24T10:53:18;15.10;74.00
3842;DHT22;1936;47.074;15.336;2023-04-24T10:55:46;15.40;75.10
3842;DHT22;1936;47.074;15.336;2023-04-24T10:58:02;15.50;74.80
3842;DHT22;1936;47.074;15.336;2023-04-24T11:00:22;15.90;73.50
3842;DHT22;1936;47.074;15.336;2023-04-24T11:02:36;15.90;74.20
3842;DHT22;1936;47.074;15.336;2023-04-24T11:04:40;16.40;71.50
3842;DHT22;1936;47.074;15.336;2023-04-24T11:06:45;16.40;72.10
3842;DHT22;1936;47.074;15.336;2023-04-24T11:08:48;16.60;71.80
3842;DHT22;1936;47.074;15.336;2023-04-24T11:10:58;17.10;68.70
3842;DHT22;1936;47.074;15.336;2023-04-24T11:13:02;17.60;69.50
3842;DHT22;1936;47.074;15.336;2023-04-24T11:15:10;17.80;68.50
3842;DHT22;1936;47.074;15.336;2023-04-24T11:17:28;18.40;68.80
3842;DHT22;1936;47.074;15.336;2023-04-24T11:19:34;17.90;61.00
3842;DHT22;1936;47.074;15.336;2023-04-24T11:21:40;18.30;65.30
3842;DHT22;1936;47.074;15.336;2023-04-24T11:23:45;18.90;63.30
3842;DHT22;1936;47.074;15.336;2023-04-24T11:26:11;19.10;59.60
3842;DHT22;1936;47.074;15.336;2023-04-24T11:28:16;19.70;62.50
3842;DHT22;1936;47.074;15.336;2023-04-24T11:30:20;19.80;58.40
3842;DHT22;1936;47.074;15.336;2023-04-24T11:32:25;19.40;57.90
3842;DHT22;1936;47.074;15.336;2023-04-24T11:34:29;19.40;58.00
3842;DHT22;1936;47.074;15.336;2023-04-24T11:36:33;19.10;57.80
3842;DHT22;1936;47.074;15.336;2023-04-24T11:38:37;19.30;60.90
3842;DHT22;1936;47.074;15.336;2023-04-24T11:40:42;19.60;58.10
3842;DHT22;1936;47.074;15.336;2023-04-24T11:42:49;19.50;57.40
3842;DHT22;1936;47.074;15.336;2023-04-24T11:44:53;19.80;60.90
3842;DHT22;1936;47.074;15.336;2023-04-24T11:46:57;20.20;56.90
3842;DHT22;1936;47.074;15.336;2023-04-24T11:49:01;20.20;56.90
3842;DHT22;1936;47.074;15.336;2023-04-24T11:51:05;20.40;56.20
3842;DHT22;1936;47.074;15.336;2023-04-24T11:53:08;19.90;56.50
3842;DHT22;1936;47.074;15.336;2023-04-24T11:55:24;19.40;56.00
3842;DHT22;1936;47.074;15.336;2023-04-24T11:57:29;18.70;56.90
3842;DHT22;1936;47.074;15.336;2023-04-24T11:59:37;19.20;57.90
3842;DHT22;1936;47.074;15.336;2023-04-24T12:01:44;18.80;57.30
3842;DHT22;1936;47.074;15.336;2023-04-24T12:03:48;18.90;56.50
3842;DHT22;1936;47.074;15.336;2023-04-24T12:06:04;19.20;56.00
3842;DHT22;1936;47.074;15.336;2023-04-24T12:08:09;19.50;56.50
3842;DHT22;1936;47.074;15.336;2023-04-24T12:10:13;19.70;56.90
3842;DHT22;1936;47.074;15.336;2023-04-24T12:12:17;19.70;57.30
3842;DHT22;1936;47.074;15.336;2023-04-24T12:14:21;19.60;58.40
3842;DHT22;1936;47.074;15.336;2023-04-24T12:16:26;19.40;55.20
3842;DHT22;1936;47.074;15.336;2023-04-24T12:18:29;19.50;57.30
3842;DHT22;1936;47.074;15.336;2023-04-24T12:20:35;19.90;58.00
3842;DHT22;1936;47.074;15.336;2023-04-24T12:22:45;19.80;56.00
3842;DHT22;1936;47.074;15.336;2023-04-24T12:24:59;19.60;58.30
3842;DHT22;1936;47.074;15.336;2023-04-24T12:27:04;19.40;57.30
3842;DHT22;1936;47.074;15.336;2023-04-24T12:29:07;18.40;55.70
3842;DHT22;1936;47.074;15.336;2023-04-24T12:31:11;19.00;55.10
3842;DHT22;1936;47.074;15.336;2023-04-24T12:33:19;19.20;56.90
3842;DHT22;1936;47.074;15.336;2023-04-24T12:35:23;19.40;58.80
3842;DHT22;1936;47.074;15.336;2023-04-24T12:37:32;19.40;59.00
3842;DHT22;1936;47.074;15.336;2023-04-24T12:39:39;19.20;58.40
3842;DHT22;1936;47.074;15.336;2023-04-24T12:41:57;19.30;59.50
3842;DHT22;1936;47.074;15.336;2023-04-24T12:44:01;19.30;60.80
3842;DHT22;1936;47.074;15.336;2023-04-24T12:46:05;19.10;55.70
3842;DHT22;1936;47.074;15.336;2023-04-24T12:48:08;19.20;58.60
3842;DHT22;1936;47.074;15.336;2023-04-24T12:50:14;18.60;54.60
3842;DHT22;1936;47.074;15.336;2023-04-24T12:52:18;18.80;58.40
3842;DHT22;1936;47.074;15.336;2023-04-24T12:54:22;17.80;57.60
3842;DHT22;1936;47.074;15.336;2023-04-24T12:56:26;17.50;60.00
3842;DHT22;1936;47.074;15.336;2023-04-24T12:58:29;18.00;58.30
3842;DHT22;1936;47.074;15.336;2023-04-24T13:00:33;18.00;63.10
3842;DHT22;1936;47.074;15.336;2023-04-24T13:02:36;18.20;63.40
3842;DHT22;1936;47.074;15.336;2023-04-24T13:04:40;18.40;62.10
3842;DHT22;1936;47.074;15.336;2023-04-24T13:06:45;18.70;63.10
3842;DHT22;1936;47.074;15.336;2023-04-24T13:08:48;18.60;58.20
3842;DHT22;1936;47.074;15.336;2023-04-24T13:10:53;18.90;57.50
3842;DHT22;1936;47.074;15.336;2023-04-24T13:12:56;18.90;57.10
3842;DHT22;1936;47.074;15.336;2023-04-24T13:15:00;18.60;57.80
3842;DHT22;1936;47.074;15.336;2023-04-24T13:17:04;18.60;57.40
3842;DHT22;1936;47.074;15.336;2023-04-24T13:19:09;18.20;55.70
3842;DHT22;1936;47.074;15.336;2023-04-24T13:21:12;18.50;58.40
3842;DHT22;1936;47.074;15.336;2023-04-24T13:23:17;18.60;61.30
3842;DHT22;1936;47.074;15.336;2023-04-24T13:25:21;18.80;63.60
3842;DHT22;1936;47.074;15.336;2023-04-24T13:27:25;18.00;65.30
3842;DHT22;1936;47.074;15.336;2023-04-24T13:29:29;18.40;63.00
3842;DHT22;1936;47.074;15.336;2023-04-24T13:31:32;18.60;56.90